Time;durP1;ratioP1;P1;durP2;ratioP2;P2;SDS_P1;SDS_P2;PMS_P1;PMS_P2;Temp;Humidity;BMP_temperature;BMP_pressure;BME280_temperature;BME280_humidity;BME280_pressure;Samples;Min_cycle;Max_cycle;Signal;HPM_P1;HPM_P2
2022/01/22 00:01:14;;;;;;;17.50;9.00;;;2.40;99.90;;;;;;4953328;28;20187;-84
2022/01/22 00:03:40;;;;;;;11.03;6.60;;;;;;;;;;4967032;28;20263;-86
2022/01/22 00:06:06;;;;;;;16.23;7.50;;;;;;;;;;4966936;28;20459;-86
2022/01/22 00:08:32;;;;;;;21.02;8.23;;;2.40;99.90;;;;;;4959769;28;20435;-85
2022/01/22 00:10:59;;;;;;;14.20;7.20;;;2.40;99.90;;;;;;4953198;28;20206;-85
2022/01/22 00:16:12;;;;;;;24.38;6.78;;;2.40;99.90;;;;;;4964648;28;20222;-87
2022/01/22 00:18:39;;;;;;;16.90;7.73;;;;;;;;;;4959942;28;20446;-85
2022/01/22 00:21:05;;;;;;;11.93;7.85;;;2.40;99.90;;;;;;4961524;28;20435;-84
2022/01/22 00:23:32;;;;;;;9.23;5.93;;;2.40;99.90;;;;;;4963004;28;20644;-85
2022/01/22 00:25:58;;;;;;;11.52;7.20;;;2.40;99.90;;;;;;4965338;28;20207;-86
2022/01/22 00:28:24;;;;;;;15.23;6.20;;;;;;;;;;4960503;28;20715;-84
2022/01/22 00:30:50;;;;;;;12.23;6.10;;;;;;;;;;4965304;28;20757;-85
2022/01/22 00:33:16;;;;;;;11.35;7.82;;;2.40;99.90;;;;;;4963664;28;20459;-85
2022/01/22 00:35:42;;;;;;;11.70;6.30;;;;;;;;;;4960868;28;20608;-85
2022/01/22 00:38:08;;;;;;;15.85;8.48;;;2.40;99.90;;;;;;4963945;28;20554;-86
2022/01/22 00:40:34;;;;;;;11.93;6.53;;;;;;;;;;4963406;28;20287;-85
2022/01/22 00:42:59;;;;;;;11.47;7.17;;;2.40;99.90;;;;;;4965386;28;20287;-85
2022/01/22 00:45:25;;;;;;;14.00;7.30;;;;;;;;;;4963533;28;20474;-86
2022/01/22 00:47:51;;;;;;;15.50;7.57;;;2.50;99.90;;;;;;4959369;28;20192;-86
2022/01/22 00:50:23;;;;;;;18.90;9.23;;;2.50;99.90;;;;;;4967554;28;20441;-85
2022/01/22 00:52:49;;;;;;;14.95;7.47;;;2.50;99.90;;;;;;4956380;28;20621;-86
2022/01/22 00:55:15;;;;;;;19.00;7.90;;;2.50;99.90;;;;;;4961637;28;20191;-86
2022/01/22 00:57:41;;;;;;;15.18;7.90;;;2.50;99.90;;;;;;4967639;28;20199;-86
2022/01/22 01:00:11;;;;;;;14.47;6.50;;;2.50;99.90;;;;;;4962289;28;20641;-85
2022/01/22 01:02:39;;;;;;;16.73;8.20;;;2.50;99.90;;;;;;4981778;28;20199;-85
2022/01/22 01:05:07;;;;;;;15.85;8.02;;;2.50;99.90;;;;;;4961800;28;20196;-85
2022/01/22 01:07:32;;;;;;;18.75;9.23;;;2.50;99.90;;;;;;4962573;28;20184;-84
2022/01/22 01:09:58;;;;;;;22.10;8.23;;;;;;;;;;4952452;28;20591;-85
2022/01/22 01:12:25;;;;;;;12.90;6.97;;;4.50;99.90;;;;;;4952695;28;20204;-86
2022/01/22 01:15:08;;;;;;;10.20;6.75;;;2.40;99.90;;;;;;4958058;28;20191;-84
2022/01/22 01:34:10;;;;;;;14.88;9.10;;;2.60;99.90;;;;;;4969517;28;20227;-85
2022/01/22 01:36:36;;;;;;;17.38;8.27;;;2.60;99.90;;;;;;4968150;28;20191;-86
2022/01/22 01:39:04;;;;;;;17.23;8.95;;;2.60;99.90;;;;;;4966169;28;20651;-83
2022/01/22 01:41:39;;;;;;;23.40;9.20;;;2.60;99.90;;;;;;4966064;28;20191;-85
2022/01/22 01:44:05;;;;;;;20.98;7.72;;;2.60;99.90;;;;;;4962482;28;20167;-87
2022/01/22 01:46:33;;;;;;;16.83;8.53;;;;;;;;;;4957287;28;20262;-87
2022/01/22 01:48:59;;;;;;;13.02;7.40;;;2.50;99.90;;;;;;4962099;28;20176;-88
2022/01/22 01:51:28;;;;;;;14.57;7.75;;;2.50;99.90;;;;;;4951878;28;20184;-87
2022/01/22 01:54:22;;;;;;;22.38;9.13;;;2.50;99.90;;;;;;4963494;28;20249;-86
2022/01/22 01:59:32;;;;;;;14.10;8.45;;;2.50;99.90;;;;;;4957006;28;20190;-86
2022/01/22 02:01:59;;;;;;;21.73;8.57;;;2.50;99.90;;;;;;4960919;28;20282;-86
2022/01/22 02:04:24;;;;;;;15.85;9.52;;;2.50;99.90;;;;;;4957049;28;20209;-85
2022/01/22 02:06:50;;;;;;;30.63;10.80;;;;;;;;;;4956700;28;20219;-86
2022/01/22 02:09:16;;;;;;;19.55;9.50;;;2.50;99.90;;;;;;4966718;28;20180;-85
2022/01/22 02:11:43;;;;;;;22.70;10.70;;;2.50;99.90;;;;;;4969976;28;22082;-83
2022/01/22 02:23:30;;;;;;;22.45;11.73;;;2.50;99.90;;;;;;4966772;28;20180;-83
2022/01/22 02:25:09;;;;;;;17.40;9.18;;;2.50;99.90;;;;;;4965571;28;20227;-86
2022/01/22 02:27:35;;;;;;;18.58;8.93;;;2.50;99.90;;;;;;4966474;28;20739;-83
2022/01/22 02:30:01;;;;;;;21.30;9.27;;;2.40;99.90;;;;;;4972243;28;20187;-86
2022/01/22 02:35:30;;;;;;;19.17;10.10;;;2.50;99.90;;;;;;4962727;28;20439;-86
2022/01/22 02:38:02;;;;;;;19.50;10.98;;;2.50;99.90;;;;;;4965120;28;20183;-83
2022/01/22 02:40:32;;;;;;;24.15;10.80;;;2.50;99.90;;;;;;4966359;28;20184;-86
2022/01/22 02:43:00;;;;;;;22.23;12.00;;;2.50;99.90;;;;;;4969794;28;20190;-85
2022/01/22 02:45:25;;;;;;;19.08;10.05;;;2.50;99.90;;;;;;4962773;28;20215;-84
2022/01/22 02:47:52;;;;;;;15.30;9.50;;;2.50;99.90;;;;;;4965990;28;20926;-86
2022/01/22 02:50:18;;;;;;;25.40;11.50;;;2.40;99.90;;;;;;4969110;28;20450;-84
2022/01/22 02:52:44;;;;;;;28.17;11.80;;;2.40;99.90;;;;;;4952660;28;20180;-84
2022/01/22 02:55:12;;;;;;;21.30;10.90;;;2.40;99.90;;;;;;4958909;28;20317;-83
2022/01/22 02:57:40;;;;;;;22.85;10.48;;;3.50;99.90;;;;;;4955250;28;20184;-84
2022/01/22 03:00:11;;;;;;;23.63;10.02;;;2.40;99.90;;;;;;4973329;28;20195;-83
2022/01/22 03:02:37;;;;;;;20.70;11.05;;;2.40;99.90;;;;;;4968427;28;20187;-84
2022/01/22 03:05:04;;;;;;;35.33;12.90;;;2.50;99.90;;;;;;4970161;28;20671;-85
2022/01/22 03:07:29;;;;;;;18.83;9.30;;;2.40;99.90;;;;;;4964159;28;21136;-87
2022/01/22 03:10:00;;;;;;;21.10;11.03;;;2.40;99.90;;;;;;4966226;28;20314;-85
2022/01/22 03:18:38;;;;;;;36.78;15.63;;;2.50;99.90;;;;;;4968484;28;20194;-85
2022/01/22 03:28:58;;;;;;;21.50;9.95;;;2.60;99.90;;;;;;4960151;28;20712;-84
2022/01/22 03:31:24;;;;;;;12.85;8.10;;;2.80;99.90;;;;;;4986112;28;20176;-85
2022/01/22 03:33:50;;;;;;;21.67;10.27;;;2.50;99.90;;;;;;4965777;28;20253;-85
2022/01/22 03:36:15;;;;;;;36.80;10.37;;;2.50;99.90;;;;;;4965913;28;20199;-84
2022/01/22 03:38:42;;;;;;;21.63;8.70;;;;;;;;;;4960109;28;20273;-87
2022/01/22 03:41:08;;;;;;;16.58;8.30;;;2.50;99.90;;;;;;4966785;28;20190;-85
2022/01/22 03:43:34;;;;;;;12.47;7.27;;;;;;;;;;4963115;28;20184;-86
2022/01/22 03:45:59;;;;;;;18.47;8.90;;;2.50;99.90;;;;;;4961630;28;20578;-85
2022/01/22 03:48:25;;;;;;;16.80;7.87;;;;;;;;;;4964381;28;20435;-87
2022/01/22 03:50:51;;;;;;;16.73;9.30;;;;;;;;;;4961570;28;20734;-85
2022/01/22 03:53:17;;;;;;;16.08;9.23;;;2.50;99.90;;;;;;4955681;28;21053;-85
2022/01/22 03:56:01;;;;;;;11.30;6.63;;;2.60;99.90;;;;;;4955919;28;20266;-86
2022/01/22 03:58:28;;;;;;;23.83;9.43;;;2.60;99.90;;;;;;4955980;28;20291;-84
2022/01/22 04:01:10;;;;;;;17.33;9.20;;;2.60;99.90;;;;;;4960650;28;20192;-87
2022/01/22 04:03:40;;;;;;;17.90;8.50;;;2.70;99.90;;;;;;4967669;28;20180;-86
2022/01/22 04:06:46;;;;;;;21.08;10.00;;;2.60;99.90;;;;;;4964571;28;20254;-86
2022/01/22 04:09:10;;;;;;;16.35;10.00;;;2.70;99.90;;;;;;4962377;28;20187;-84
2022/01/22 04:11:40;;;;;;;14.15;7.50;;;2.60;99.90;;;;;;4961651;28;20200;-86
2022/01/22 04:14:13;;;;;;;16.20;8.25;;;2.70;99.90;;;;;;4965159;28;20171;-84
2022/01/22 04:16:56;;;;;;;10.50;6.10;;;2.70;99.90;;;;;;4963645;28;20294;-83
2022/01/22 04:24:52;;;;;;;12.00;6.35;;;2.80;99.90;;;;;;4964010;28;20308;-83
2022/01/22 04:27:23;;;;;;;14.52;8.70;;;2.80;99.90;;;;;;4967112;28;20919;-81
2022/01/22 04:29:54;;;;;;;16.27;9.20;;;2.80;99.90;;;;;;4982402;28;20188;-82
2022/01/22 04:32:20;;;;;;;13.50;7.80;;;2.80;99.90;;;;;;4963165;28;20551;-85
2022/01/22 04:34:46;;;;;;;17.65;8.73;;;2.80;99.90;;;;;;4964612;28;20191;-85
2022/01/22 04:37:12;;;;;;;20.17;9.80;;;;;;;;;;4965043;28;20216;-83
2022/01/22 04:39:38;;;;;;;14.63;7.25;;;2.80;99.90;;;;;;4956783;28;20202;-82
2022/01/22 04:42:04;;;;;;;16.47;7.20;;;;;;;;;;4974075;28;20187;-82
2022/01/22 04:44:35;;;;;;;11.95;7.20;;;;;;;;;;4982822;28;20586;-85
2022/01/22 04:52:39;;;;;;;16.70;7.80;;;2.80;99.90;;;;;;4974097;28;20663;-85
2022/01/22 04:55:07;;;;;;;14.77;7.93;;;2.80;99.90;;;;;;4980195;28;20183;-85
2022/01/22 04:57:38;;;;;;;20.40;7.95;;;2.80;99.90;;;;;;4960997;28;20276;-87
2022/01/22 05:00:10;;;;;;;16.35;8.90;;;2.80;99.90;;;;;;4976448;28;20218;-84
2022/01/22 05:02:36;;;;;;;15.82;7.68;;;2.80;99.90;;;;;;4955769;28;20634;-84
2022/01/22 05:05:02;;;;;;;16.30;9.57;;;;;;;;;;4959799;28;20199;-83
2022/01/22 05:07:27;;;;;;;18.92;8.98;;;4.10;99.90;;;;;;4981343;28;20188;-85
2022/01/22 05:09:53;;;;;;;15.00;8.63;;;;;;;;;;4960290;28;20249;-83
2022/01/22 05:12:19;;;;;;;23.67;8.77;;;;;;;;;;4954200;28;20205;-84
2022/01/22 05:14:45;;;;;;;9.93;7.17;;;;;;;;;;4958487;28;20451;-84
2022/01/22 05:17:12;;;;;;;16.80;8.20;;;2.90;99.90;;;;;;4961141;28;20471;-85
2022/01/22 05:19:50;;;;;;;14.40;9.05;;;2.90;99.90;;;;;;4963782;28;20188;-83
2022/01/22 05:24:46;;;;;;;14.53;8.60;;;3.00;99.90;;;;;;4963660;28;20211;-87
2022/01/22 05:30:04;;;;;;;17.63;9.23;;;3.00;99.90;;;;;;4967922;28;20183;-84
2022/01/22 05:32:50;;;;;;;15.40;9.02;;;3.00;99.90;;;;;;4962641;28;20184;-81
2022/01/22 05:38:01;;;;;;;16.77;8.77;;;3.10;99.90;;;;;;4968540;28;20186;-85
2022/01/22 05:40:28;;;;;;;20.73;9.65;;;3.10;99.90;;;;;;4965755;28;20176;-86
2022/01/22 05:42:54;;;;;;;17.85;8.20;;;3.10;99.90;;;;;;4957579;28;20198;-80
2022/01/22 05:45:20;;;;;;;17.20;9.13;;;;;;;;;;4962856;28;20402;-85
2022/01/22 05:47:46;;;;;;;17.40;7.87;;;;;;;;;;4968809;28;20196;-84
2022/01/22 05:50:25;;;;;;;17.27;8.80;;;;;;;;;;4964811;28;20450;-86
2022/01/22 05:52:57;;;;;;;11.85;7.10;;;3.00;99.90;;;;;;4958479;28;20202;-83
2022/01/22 05:59:35;;;;;;;11.80;6.93;;;3.10;99.90;;;;;;4966737;28;20210;-82
2022/01/22 06:00:55;;;;;;;12.32;6.78;;;3.10;99.90;;;;;;4969162;28;20203;-85
2022/01/22 06:03:21;;;;;;;24.33;9.30;;;;;;;;;;4966971;28;20191;-83
2022/01/22 06:05:47;;;;;;;11.30;7.70;;;;;;;;;;4982869;28;20729;-86
2022/01/22 06:08:16;;;;;;;17.03;7.80;;;;;;;;;;4968923;28;20187;-85
2022/01/22 06:10:42;;;;;;;9.98;6.57;;;3.20;99.90;;;;;;4978657;28;20450;-82
2022/01/22 06:13:15;;;;;;;18.83;8.65;;;3.20;99.90;;;;;;4974875;28;20203;-86
2022/01/22 06:15:40;;;;;;;12.57;7.20;;;3.10;99.90;;;;;;4966983;28;20206;-85
2022/01/22 06:18:06;;;;;;;13.47;8.93;;;3.10;99.90;;;;;;4967498;28;20175;-85
2022/01/22 06:20:32;;;;;;;18.57;10.23;;;;;;;;;;4964564;28;20200;-84
2022/01/22 06:22:58;;;;;;;18.55;9.77;;;3.20;99.90;;;;;;4965936;28;20273;-84
2022/01/22 06:25:24;;;;;;;18.10;8.60;;;3.20;99.90;;;;;;4964706;28;20219;-85
2022/01/22 06:27:50;;;;;;;17.33;9.57;;;;;;;;;;4970004;28;20438;-86
2022/01/22 06:30:15;;;;;;;19.60;10.20;;;3.10;99.90;;;;;;4964494;28;20600;-85
2022/01/22 06:32:41;;;;;;;16.50;9.00;;;;;;;;;;4964872;28;20805;-84
2022/01/22 06:35:07;;;;;;;15.30;7.20;;;2.90;99.90;;;;;;4961304;28;20583;-86
2022/01/22 06:37:33;;;;;;;18.05;9.02;;;3.00;99.90;;;;;;4965123;28;21972;-84
2022/01/22 06:42:32;;;;;;;14.23;7.75;;;3.00;99.90;;;;;;4967527;28;20197;-86
2022/01/22 06:44:58;;;;;;;18.23;8.90;;;3.00;99.90;;;;;;4966822;28;20314;-85
2022/01/22 06:47:27;;;;;;;18.80;9.68;;;3.00;99.90;;;;;;4969656;28;20203;-84
2022/01/22 06:49:53;;;;;;;20.45;7.70;;;3.00;99.90;;;;;;4968949;28;20207;-83
2022/01/22 06:52:19;;;;;;;14.70;8.17;;;;;;;;;;4963128;28;20908;-86
2022/01/22 06:54:46;;;;;;;17.45;8.43;;;2.90;99.90;;;;;;4968086;28;20579;-86
2022/01/22 06:57:12;;;;;;;16.60;8.57;;;;;;;;;;4962794;28;20207;-82
2022/01/22 06:59:38;;;;;;;16.13;9.23;;;2.90;99.90;;;;;;4959202;28;20229;-86
2022/01/22 07:02:04;;;;;;;16.58;8.85;;;2.90;99.90;;;;;;4968699;28;20712;-84
2022/01/22 07:04:31;;;;;;;15.73;8.27;;;3.00;99.90;;;;;;4959262;28;20180;-85
2022/01/22 07:06:57;;;;;;;16.90;10.30;;;3.00;99.90;;;;;;4967033;28;20551;-85
2022/01/22 07:09:23;;;;;;;17.88;10.60;;;2.90;99.90;;;;;;4964576;28;21065;-86
2022/01/22 07:11:49;;;;;;;18.47;9.03;;;;;;;;;;4968796;28;20192;-84
2022/01/22 07:14:15;;;;;;;19.80;10.40;;;2.90;99.90;;;;;;4961107;28;20513;-86
2022/01/22 07:16:41;;;;;;;23.20;10.68;;;2.90;99.90;;;;;;4953931;28;20200;-85
2022/01/22 07:19:08;;;;;;;20.77;10.10;;;;;;;;;;4963045;28;20187;-86
2022/01/22 07:21:36;;;;;;;19.30;9.13;;;2.90;99.90;;;;;;4965612;28;20193;-84
2022/01/22 07:26:28;;;;;;;13.90;8.10;;;3.00;99.90;;;;;;4972832;28;20247;-84
2022/01/22 07:28:54;;;;;;;16.35;7.07;;;;;;;;;;4970396;28;20214;-84
2022/01/22 07:31:27;;;;;;;15.27;7.10;;;3.00;99.90;;;;;;4985228;28;20211;-82
2022/01/22 07:33:52;;;;;;;13.27;7.82;;;3.00;99.90;;;;;;4965196;28;20283;-84
2022/01/22 07:36:18;;;;;;;19.67;6.37;;;;;;;;;;4963141;28;20319;-86
2022/01/22 07:38:44;;;;;;;12.25;6.00;;;3.00;99.90;;;;;;4953884;28;20246;-83
2022/01/22 07:41:11;;;;;;;11.10;6.17;;;;;;;;;;4965535;28;20626;-85
2022/01/22 07:43:38;;;;;;;12.10;6.20;;;3.10;99.90;;;;;;4951008;28;20439;-85
2022/01/22 07:46:04;;;;;;;15.52;7.68;;;3.20;99.90;;;;;;4963205;28;20215;-85
2022/01/22 07:48:30;;;;;;;17.90;7.47;;;3.20;99.90;;;;;;4961135;28;20231;-85
2022/01/22 07:50:56;;;;;;;10.17;6.43;;;;;;;;;;4962199;28;20176;-83
2022/01/22 07:53:24;;;;;;;15.07;6.63;;;3.20;99.90;;;;;;4967058;28;20191;-85
2022/01/22 07:55:50;;;;;;;10.70;6.63;;;3.20;99.90;;;;;;4964360;28;20490;-85
2022/01/22 07:58:15;;;;;;;17.33;8.63;;;;;;;;;;4961813;28;20227;-85
2022/01/22 08:00:41;;;;;;;12.70;6.57;;;3.40;99.90;;;;;;4966002;28;20950;-81
2022/01/22 08:03:08;;;;;;;13.47;6.60;;;;;;;;;;4958165;28;20447;-83
2022/01/22 08:05:34;;;;;;;21.63;8.25;;;3.30;99.90;;;;;;4960135;28;20226;-81
2022/01/22 08:08:00;;;;;;;17.42;7.82;;;3.30;99.90;;;;;;4970695;28;20182;-82
2022/01/22 08:10:26;;;;;;;17.20;7.73;;;3.30;99.90;;;;;;4960600;28;20208;-86
2022/01/22 08:12:51;;;;;;;15.23;6.10;;;3.30;99.90;;;;;;4956791;28;20267;-83
2022/01/22 08:15:18;;;;;;;20.43;8.63;;;3.40;99.90;;;;;;4954915;28;20297;-83
2022/01/22 08:17:45;;;;;;;18.10;7.47;;;4.10;99.90;;;;;;4954441;28;20188;-85
2022/01/22 08:20:13;;;;;;;16.95;9.40;;;3.40;99.90;;;;;;4951638;28;20186;-84
2022/01/22 08:22:39;;;;;;;15.85;8.32;;;3.40;99.90;;;;;;4956385;28;21448;-83
2022/01/22 08:25:05;;;;;;;13.33;7.90;;;3.40;99.90;;;;;;4965596;28;20353;-84
2022/01/22 08:27:41;;;;;;;22.70;8.02;;;3.50;99.90;;;;;;4963884;28;20287;-84
2022/01/22 08:30:09;;;;;;;18.85;11.10;;;3.40;99.90;;;;;;4958897;28;20191;-86
2022/01/22 08:37:45;;;;;;;22.63;8.15;;;3.60;99.90;;;;;;4960539;28;20486;-86
2022/01/22 08:40:11;;;;;;;17.97;7.93;;;3.60;99.90;;;;;;4957160;28;20180;-83
2022/01/22 08:42:37;;;;;;;15.50;7.60;;;;;;;;;;4959447;28;20191;-84
2022/01/22 08:45:04;;;;;;;17.02;6.80;;;3.50;99.90;;;;;;4962558;28;20470;-86
2022/01/22 08:47:30;;;;;;;13.18;6.60;;;3.50;99.90;;;;;;4963428;28;20199;-85
2022/01/22 08:49:56;;;;;;;14.57;7.37;;;;;;;;;;4967051;28;20191;-84
2022/01/22 08:52:26;;;;;;;13.53;6.47;;;;;;;;;;4980478;28;20247;-81
2022/01/22 08:54:52;;;;;;;16.05;7.45;;;3.40;99.90;;;;;;4971201;28;20441;-84
2022/01/22 08:57:18;;;;;;;13.47;7.10;;;;;;;;;;4962117;28;20621;-82
2022/01/22 08:59:44;;;;;;;16.80;7.50;;;3.50;99.90;;;;;;4974625;28;20188;-84
2022/01/22 09:02:11;;;;;;;20.55;8.70;;;3.50;99.90;;;;;;4971686;28;20470;-83
2022/01/22 09:04:36;;;;;;;16.67;7.72;;;3.40;99.90;;;;;;4968162;28;20179;-82
2022/01/22 09:07:02;;;;;;;9.97;6.77;;;3.40;99.90;;;;;;4961815;28;20208;-83
2022/01/22 09:09:28;;;;;;;10.93;7.23;;;3.40;99.90;;;;;;4964495;28;20210;-83
2022/01/22 09:11:55;;;;;;;12.63;7.53;;;3.40;99.90;;;;;;4964362;28;20516;-86
2022/01/22 09:14:21;;;;;;;12.90;6.15;;;3.40;99.90;;;;;;4964198;28;20191;-87
2022/01/22 09:16:50;;;;;;;24.73;8.37;;;3.50;99.90;;;;;;4965047;28;20204;-86
2022/01/22 09:19:16;;;;;;;14.20;7.20;;;3.50;99.90;;;;;;4964581;28;20465;-89
2022/01/22 09:21:45;;;;;;;17.60;7.90;;;3.50;99.90;;;;;;4956347;28;20188;-85
2022/01/22 09:24:12;;;;;;;20.00;7.35;;;3.40;99.90;;;;;;4958761;28;20518;-86
2022/01/22 09:26:38;;;;;;;14.18;6.15;;;3.50;99.90;;;;;;4966831;28;20261;-86
2022/01/22 09:29:04;;;;;;;18.03;7.60;;;;;;;;;;4969086;28;20215;-87
2022/01/22 09:31:31;;;;;;;12.13;6.25;;;3.60;99.90;;;;;;4968874;28;20199;-87
2022/01/22 09:33:59;;;;;;;11.07;6.53;;;3.60;99.90;;;;;;4961245;28;20199;-85
2022/01/22 09:36:27;;;;;;;15.38;7.65;;;3.60;99.90;;;;;;4966923;28;20207;-86
2022/01/22 09:38:53;;;;;;;18.27;8.88;;;3.70;99.90;;;;;;4968015;28;20184;-88
2022/01/22 09:41:21;;;;;;;17.20;8.73;;;3.70;99.90;;;;;;4968175;28;20249;-87
2022/01/22 09:43:46;;;;;;;21.20;6.32;;;3.90;99.90;;;;;;4966200;28;20192;-86
2022/01/22 09:46:12;;;;;;;13.03;8.10;;;;;;;;;;4969683;28;20220;-84
2022/01/22 09:48:46;;;;;;;16.50;7.90;;;3.90;99.90;;;;;;4965645;28;20206;-86
2022/01/22 09:51:13;;;;;;;20.13;7.63;;;4.00;99.90;;;;;;4965450;28;20443;-85
2022/01/22 09:53:45;;;;;;;11.70;6.93;;;3.90;99.90;;;;;;4968005;28;20188;-86
2022/01/22 09:56:12;;;;;;;18.25;7.88;;;4.00;99.90;;;;;;4969921;28;20204;-84
2022/01/22 09:58:38;;;;;;;18.83;6.95;;;3.90;99.90;;;;;;4962741;28;20184;-87
2022/01/22 10:01:23;;;;;;;11.18;5.78;;;4.00;99.90;;;;;;4964751;28;20184;-84
2022/01/22 10:03:50;;;;;;;14.32;7.28;;;4.00;99.90;;;;;;4963980;28;20263;-84
2022/01/22 10:06:25;;;;;;;16.42;8.95;;;4.10;99.90;;;;;;4966796;28;20234;-84
2022/01/22 10:08:56;;;;;;;13.05;6.75;;;4.10;99.90;;;;;;4963916;28;20580;-83
2022/01/22 10:11:27;;;;;;;10.63;6.18;;;4.10;99.90;;;;;;4983191;28;20252;-83
2022/01/22 10:13:59;;;;;;;18.42;7.53;;;4.00;99.90;;;;;;4975481;28;20268;-84
2022/01/22 10:16:41;;;;;;;10.40;6.55;;;4.00;99.90;;;;;;4966828;28;20203;-86
2022/01/22 10:19:13;;;;;;;18.05;8.23;;;4.00;99.90;;;;;;4969027;28;20755;-85
2022/01/22 10:21:45;;;;;;;19.15;8.23;;;4.00;99.90;;;;;;4969877;28;20188;-85
2022/01/22 10:24:29;;;;;;;13.25;6.60;;;4.00;99.90;;;;;;4969629;28;20187;-83
2022/01/22 10:27:34;;;;;;;12.65;7.00;;;4.10;99.90;;;;;;4973257;28;20214;-84
2022/01/22 10:30:07;;;;;;;11.10;5.80;;;4.10;99.90;;;;;;4969906;28;20660;-84
2022/01/22 10:32:47;;;;;;;17.25;7.03;;;4.10;99.90;;;;;;4969758;28;20183;-86
2022/01/22 10:35:23;;;;;;;16.60;6.18;;;6.60;99.90;;;;;;4965176;28;20652;-84
2022/01/22 10:37:57;;;;;;;10.57;6.43;;;4.10;99.90;;;;;;4962183;28;20187;-86
2022/01/22 10:40:27;;;;;;;12.18;7.25;;;4.00;99.90;;;;;;4965678;28;20278;-84
2022/01/22 10:43:19;;;;;;;13.32;6.78;;;4.10;99.90;;;;;;4966717;28;20187;-86
2022/01/22 10:46:09;;;;;;;14.98;6.63;;;4.20;99.90;;;;;;4965479;28;20860;-84
2022/01/22 10:49:04;;;;;;;14.90;6.65;;;4.20;99.90;;;;;;4966757;28;20181;-86
2022/01/22 10:51:31;;;;;;;17.52;5.05;;;4.20;99.90;;;;;;4964813;28;20208;-85
2022/01/22 10:54:02;;;;;;;11.88;6.97;;;4.30;99.90;;;;;;4962339;28;20180;-84
2022/01/22 10:56:30;;;;;;;11.25;5.68;;;4.60;99.90;;;;;;4969848;28;20265;-84
2022/01/22 10:59:11;;;;;;;8.77;5.45;;;4.60;99.90;;;;;;4984042;28;20194;-87
2022/01/22 11:01:53;;;;;;;11.07;4.93;;;4.50;99.90;;;;;;4969612;28;20180;-84
2022/01/22 11:04:28;;;;;;;13.38;5.90;;;4.40;99.90;;;;;;4963973;28;20184;-87
2022/01/22 11:07:03;;;;;;;12.85;4.88;;;4.40;99.90;;;;;;4967830;28;20214;-86
2022/01/22 11:09:30;;;;;;;18.77;5.25;;;4.40;99.90;;;;;;4968027;28;20175;-84
2022/01/22 11:12:01;;;;;;;7.07;4.45;;;4.40;99.90;;;;;;4983797;28;20218;-87
2022/01/22 11:14:32;;;;;;;6.88;5.18;;;4.40;99.90;;;;;;4963682;28;22902;-86
2022/01/22 11:16:58;;;;;;;20.17;7.80;;;4.20;99.90;;;;;;4962512;28;20214;-86
2022/01/22 11:19:33;;;;;;;8.75;4.60;;;4.30;99.90;;;;;;4966080;28;20712;-85
2022/01/22 11:22:11;;;;;;;9.57;6.32;;;4.30;99.90;;;;;;4966606;28;20175;-85
2022/01/22 11:24:42;;;;;;;10.13;4.57;;;4.50;99.90;;;;;;4971268;28;20218;-87
2022/01/22 11:27:11;;;;;;;11.88;5.93;;;4.50;99.90;;;;;;4960176;28;20204;-87
2022/01/22 11:29:45;;;;;;;8.55;5.63;;;4.50;99.90;;;;;;4979048;28;20210;-84
2022/01/22 11:32:13;;;;;;;14.98;5.88;;;4.80;99.90;;;;;;4979886;28;20164;-82
2022/01/22 11:34:42;;;;;;;8.27;5.70;;;4.80;99.90;;;;;;4967686;28;20192;-82
2022/01/22 11:37:20;;;;;;;12.57;5.95;;;4.50;99.90;;;;;;4967257;28;20230;-85
2022/01/22 11:39:46;;;;;;;9.68;6.53;;;4.50;99.90;;;;;;4958233;28;20237;-86
2022/01/22 11:42:13;;;;;;;13.82;4.55;;;4.50;99.90;;;;;;4956356;28;20259;-87
2022/01/22 11:44:49;;;;;;;18.60;6.15;;;4.50;99.90;;;;;;4965064;28;20176;-85
2022/01/22 11:47:20;;;;;;;9.60;6.45;;;4.70;99.90;;;;;;4968087;28;20256;-85
2022/01/22 11:50:06;;;;;;;14.02;5.05;;;4.70;99.90;;;;;;4964678;28;20671;-86
2022/01/22 11:52:35;;;;;;;13.48;6.63;;;4.80;99.90;;;;;;4962904;28;20518;-85
2022/01/22 11:55:07;;;;;;;10.70;4.22;;;4.70;99.90;;;;;;4978039;28;20184;-84
2022/01/22 11:57:34;;;;;;;9.50;5.50;;;4.80;99.90;;;;;;4963007;28;20214;-85
2022/01/22 12:00:29;;;;;;;12.18;7.68;;;4.70;99.90;;;;;;4962935;28;20846;-84
2022/01/22 12:03:03;;;;;;;10.50;5.07;;;4.60;99.90;;;;;;4969157;28;20891;-85
2022/01/22 12:05:30;;;;;;;9.05;6.90;;;4.70;99.90;;;;;;4958803;28;20218;-86
2022/01/22 12:08:00;;;;;;;27.35;8.30;;;4.70;99.90;;;;;;4963223;28;20331;-84
2022/01/22 12:10:39;;;;;;;13.63;5.95;;;4.80;99.90;;;;;;4962268;28;20192;-85
2022/01/22 12:16:17;;;;;;;10.57;6.07;;;4.70;99.90;;;;;;4963357;28;20214;-85
2022/01/22 12:18:55;;;;;;;15.38;7.38;;;4.60;99.90;;;;;;4963704;28;20329;-84
2022/01/22 12:21:31;;;;;;;17.73;9.27;;;4.50;99.90;;;;;;4985046;28;20712;-86
2022/01/22 12:23:58;;;;;;;10.80;6.45;;;4.60;99.90;;;;;;4964782;28;20301;-85
2022/01/22 12:26:41;;;;;;;13.65;7.00;;;4.60;99.90;;;;;;4970455;28;20230;-85
2022/01/22 12:29:31;;;;;;;11.52;8.02;;;4.60;99.90;;;;;;4959847;28;20180;-84
2022/01/22 12:32:07;;;;;;;10.35;7.40;;;4.60;99.90;;;;;;4966219;28;20191;-85
2022/01/22 12:35:04;;;;;;;17.13;8.80;;;4.60;99.90;;;;;;4962106;28;20191;-85
2022/01/22 12:37:30;;;;;;;16.83;6.85;;;4.70;99.90;;;;;;4967673;28;20257;-86
2022/01/22 12:39:57;;;;;;;11.60;6.18;;;4.60;99.90;;;;;;4965908;28;20229;-84
2022/01/22 12:42:46;;;;;;;14.27;8.18;;;4.50;99.90;;;;;;4957094;28;20441;-85
2022/01/22 12:45:11;;;;;;;17.75;8.38;;;3.70;99.90;;;;;;4958181;28;20810;-85
2022/01/22 12:47:45;;;;;;;11.17;7.77;;;4.50;99.90;;;;;;4963110;28;20187;-85
2022/01/22 12:50:11;;;;;;;15.60;8.95;;;4.50;99.90;;;;;;4960066;28;20184;-82
2022/01/22 12:52:37;;;;;;;17.00;9.00;;;4.50;99.90;;;;;;4973896;28;20181;-82
2022/01/22 12:55:23;;;;;;;12.43;6.93;;;4.40;99.90;;;;;;4983323;28;20194;-85
2022/01/22 12:57:49;;;;;;;23.98;8.90;;;4.40;99.90;;;;;;4975252;28;20171;-85
2022/01/22 13:00:19;;;;;;;20.93;8.83;;;4.40;99.90;;;;;;4977939;28;20198;-83
2022/01/22 13:02:49;;;;;;;12.77;7.97;;;4.60;99.90;;;;;;4989386;28;20192;-86
2022/01/22 13:05:17;;;;;;;19.60;9.05;;;4.50;99.90;;;;;;4973280;28;20238;-84
2022/01/22 13:07:53;;;;;;;15.57;7.15;;;4.50;99.90;;;;;;4969455;28;20184;-84
2022/01/22 13:10:22;;;;;;;13.18;7.78;;;4.50;99.90;;;;;;4958255;28;20202;-83
2022/01/22 13:12:48;;;;;;;21.17;9.15;;;4.50;99.90;;;;;;4964687;28;20192;-83
2022/01/22 13:15:17;;;;;;;15.07;6.73;;;4.50;99.90;;;;;;4967186;28;20184;-85
2022/01/22 13:17:52;;;;;;;14.93;8.40;;;4.50;99.90;;;;;;4983599;28;20184;-83
2022/01/22 13:20:22;;;;;;;13.20;8.05;;;4.50;99.90;;;;;;4977818;28;20195;-86
2022/01/22 13:22:48;;;;;;;15.68;8.05;;;4.50;99.90;;;;;;4973344;28;20192;-84
2022/01/22 13:25:15;;;;;;;16.23;8.90;;;4.60;99.90;;;;;;4968195;28;20200;-84
2022/01/22 13:27:42;;;;;;;17.48;7.97;;;4.60;99.90;;;;;;4988370;28;20191;-84
2022/01/22 13:30:11;;;;;;;17.42;8.05;;;4.40;99.90;;;;;;4971099;28;20839;-86
2022/01/22 13:32:55;;;;;;;12.48;7.72;;;4.60;99.90;;;;;;4971660;28;20580;-83
2022/01/22 13:45:00;;;;;;;16.48;8.95;;;4.50;99.90;;;;;;4972906;28;20640;-86
2022/01/22 13:49:15;;;;;;;13.60;7.18;;;4.50;99.90;;;;;;4973195;28;20613;-83
2022/01/22 13:51:43;;;;;;;17.23;10.00;;;4.50;99.90;;;;;;4970771;28;20673;-85
2022/01/22 13:54:09;;;;;;;9.43;6.18;;;4.60;99.90;;;;;;4963002;28;20192;-85
2022/01/22 13:56:53;;;;;;;21.53;10.20;;;4.60;99.90;;;;;;4968784;28;20208;-84
2022/01/22 13:59:22;;;;;;;14.82;7.40;;;4.60;99.90;;;;;;4957463;28;20491;-83
2022/01/22 14:02:13;;;;;;;16.75;8.20;;;4.60;99.90;;;;;;4959508;28;20864;-86
2022/01/22 14:04:46;;;;;;;19.77;7.90;;;4.40;99.90;;;;;;4956317;28;20176;-84
2022/01/22 14:07:13;;;;;;;26.98;9.15;;;4.40;99.90;;;;;;4956211;28;20203;-84
2022/01/22 14:09:49;;;;;;;25.52;10.15;;;4.30;99.90;;;;;;4961665;28;20188;-85
2022/01/22 14:12:15;;;;;;;18.45;8.43;;;4.40;99.90;;;;;;4955200;28;20706;-85
2022/01/22 14:15:17;;;;;;;21.67;8.25;;;4.50;99.90;;;;;;4965398;28;20195;-86
2022/01/22 14:17:58;;;;;;;22.48;8.65;;;4.50;99.90;;;;;;4974798;28;20180;-85
2022/01/22 14:20:26;;;;;;;15.55;8.00;;;4.50;99.90;;;;;;4973511;28;20229;-84
2022/01/22 14:23:00;;;;;;;12.52;6.93;;;4.50;99.90;;;;;;4972024;28;20206;-85
2022/01/22 14:25:26;;;;;;;9.23;6.13;;;4.40;99.90;;;;;;4978509;28;20283;-87
2022/01/22 14:28:00;;;;;;;20.73;8.70;;;4.40;99.90;;;;;;4978053;28;20208;-85
2022/01/22 14:30:30;;;;;;;18.00;8.85;;;4.40;99.90;;;;;;4978962;28;20179;-87
2022/01/22 14:32:57;;;;;;;14.38;9.00;;;4.40;99.90;;;;;;4973302;28;20187;-86
2022/01/22 14:35:22;;;;;;;13.15;7.85;;;4.30;99.90;;;;;;4975163;28;20247;-86
2022/01/22 14:37:50;;;;;;;19.63;9.63;;;4.30;99.90;;;;;;4973882;28;20233;-87
2022/01/22 14:45:56;;;;;;;21.52;10.02;;;4.30;99.90;;;;;;4979562;28;20272;-86
2022/01/22 14:48:22;;;;;;;19.17;9.25;;;4.30;99.90;;;;;;4978796;28;20168;-85
2022/01/22 14:50:48;;;;;;;14.87;7.17;;;;;;;;;;4980083;28;20191;-87
2022/01/22 14:53:14;;;;;;;11.70;6.70;;;;;;;;;;4974085;28;20176;-86